sensor_id;sensor_type;location;lat;lon;timestamp;P1;durP1;ratioP1;P2;durP2;ratioP2
50291;SDS011;36190;54.980;73.388;2022-12-07T00:00:53;21.80;;;8.43;;
50291;SDS011;36190;54.980;73.388;2022-12-07T00:03:21;20.97;;;8.77;;
50291;SDS011;36190;54.980;73.388;2022-12-07T00:05:48;21.73;;;9.60;;
50291;SDS011;36190;54.980;73.388;2022-12-07T00:08:17;19.73;;;8.10;;
50291;SDS011;36190;54.980;73.388;2022-12-07T00:10:44;24.60;;;9.40;;
50291;SDS011;36190;54.980;73.388;2022-12-07T00:13:11;25.07;;;9.77;;
50291;SDS011;36190;54.980;73.388;2022-12-07T00:15:39;23.53;;;9.87;;
50291;SDS011;36190;54.980;73.388;2022-12-07T00:18:06;22.33;;;8.13;;
50291;SDS011;36190;54.980;73.388;2022-12-07T00:20:34;24.17;;;9.43;;
50291;SDS011;36190;54.980;73.388;2022-12-07T00:23:01;23.07;;;9.77;;
50291;SDS011;36190;54.980;73.388;2022-12-07T00:25:31;24.20;;;9.23;;
50291;SDS011;36190;54.980;73.388;2022-12-07T00:27:58;18.13;;;7.33;;
50291;SDS011;36190;54.980;73.388;2022-12-07T00:30:25;16.23;;;6.67;;
50291;SDS011;36190;54.980;73.388;2022-12-07T00:32:53;18.03;;;6.67;;
50291;SDS011;36190;54.980;73.388;2022-12-07T00:35:20;18.60;;;7.37;;
50291;SDS011;36190;54.980;73.388;2022-12-07T00:37:47;22.47;;;8.53;;
50291;SDS011;36190;54.980;73.388;2022-12-07T00:40:15;19.60;;;7.87;;
50291;SDS011;36190;54.980;73.388;2022-12-07T00:42:44;21.90;;;8.13;;
50291;SDS011;36190;54.980;73.388;2022-12-07T00:45:11;18.47;;;7.43;;
50291;SDS011;36190;54.980;73.388;2022-12-07T00:47:38;17.83;;;7.07;;
50291;SDS011;36190;54.980;73.388;2022-12-07T00:50:06;23.00;;;7.53;;
50291;SDS011;36190;54.980;73.388;2022-12-07T00:52:34;18.13;;;6.67;;
50291;SDS011;36190;54.980;73.388;2022-12-07T00:55:01;19.73;;;7.27;;
50291;SDS011;36190;54.980;73.388;2022-12-07T00:57:30;16.30;;;5.90;;
50291;SDS011;36190;54.980;73.388;2022-12-07T00:59:59;18.77;;;7.23;;
50291;SDS011;36190;54.980;73.388;2022-12-07T01:02:27;22.97;;;8.00;;
50291;SDS011;36190;54.980;73.388;2022-12-07T01:04:54;21.80;;;6.73;;
50291;SDS011;36190;54.980;73.388;2022-12-07T01:07:21;14.77;;;5.47;;
50291;SDS011;36190;54.980;73.388;2022-12-07T01:09:49;17.37;;;6.77;;
50291;SDS011;36190;54.980;73.388;2022-12-07T01:12:16;18.70;;;6.37;;
50291;SDS011;36190;54.980;73.388;2022-12-07T01:14:43;20.53;;;8.03;;
50291;SDS011;36190;54.980;73.388;2022-12-07T01:17:12;21.53;;;7.67;;
50291;SDS011;36190;54.980;73.388;2022-12-07T01:19:40;27.13;;;8.67;;
50291;SDS011;36190;54.980;73.388;2022-12-07T01:22:07;23.10;;;7.93;;
50291;SDS011;36190;54.980;73.388;2022-12-07T01:24:34;21.20;;;7.27;;
50291;SDS011;36190;54.980;73.388;2022-12-07T01:27:02;28.37;;;9.13;;
50291;SDS011;36190;54.980;73.388;2022-12-07T01:29:29;21.93;;;7.27;;
50291;SDS011;36190;54.980;73.388;2022-12-07T01:31:57;19.77;;;7.90;;
50291;SDS011;36190;54.980;73.388;2022-12-07T01:34:25;18.50;;;6.73;;
50291;SDS011;36190;54.980;73.388;2022-12-07T01:36:53;21.90;;;7.17;;
50291;SDS011;36190;54.980;73.388;2022-12-07T01:39:20;15.40;;;5.10;;
50291;SDS011;36190;54.980;73.388;2022-12-07T01:41:48;16.00;;;6.63;;
50291;SDS011;36190;54.980;73.388;2022-12-07T01:44:17;17.20;;;6.53;;
50291;SDS011;36190;54.980;73.388;2022-12-07T01:46:47;13.97;;;5.57;;
50291;SDS011;36190;54.980;73.388;2022-12-07T01:49:16;18.00;;;6.07;;
50291;SDS011;36190;54.980;73.388;2022-12-07T01:51:54;16.63;;;6.73;;
50291;SDS011;36190;54.980;73.388;2022-12-07T01:54:27;21.10;;;7.07;;
50291;SDS011;36190;54.980;73.388;2022-12-07T01:56:55;20.73;;;7.27;;
50291;SDS011;36190;54.980;73.388;2022-12-07T01:59:23;22.80;;;8.30;;
50291;SDS011;36190;54.980;73.388;2022-12-07T02:01:52;16.60;;;7.60;;
50291;SDS011;36190;54.980;73.388;2022-12-07T02:04:21;23.77;;;9.30;;
50291;SDS011;36190;54.980;73.388;2022-12-07T02:06:49;23.23;;;8.60;;
50291;SDS011;36190;54.980;73.388;2022-12-07T02:09:20;19.70;;;7.70;;
50291;SDS011;36190;54.980;73.388;2022-12-07T02:11:48;26.80;;;8.03;;
50291;SDS011;36190;54.980;73.388;2022-12-07T02:14:16;19.10;;;8.43;;
50291;SDS011;36190;54.980;73.388;2022-12-07T02:16:46;22.87;;;8.37;;
50291;SDS011;36190;54.980;73.388;2022-12-07T02:19:30;27.60;;;9.33;;
50291;SDS011;36190;54.980;73.388;2022-12-07T02:22:30;24.47;;;7.97;;
50291;SDS011;36190;54.980;73.388;2022-12-07T02:25:22;21.33;;;7.03;;
50291;SDS011;36190;54.980;73.388;2022-12-07T02:27:59;21.80;;;8.47;;
50291;SDS011;36190;54.980;73.388;2022-12-07T02:30:34;21.13;;;7.20;;
50291;SDS011;36190;54.980;73.388;2022-12-07T02:33:07;24.43;;;8.60;;
50291;SDS011;36190;54.980;73.388;2022-12-07T02:35:42;21.10;;;7.80;;
50291;SDS011;36190;54.980;73.388;2022-12-07T02:38:14;28.13;;;9.63;;
50291;SDS011;36190;54.980;73.388;2022-12-07T02:40:48;18.17;;;7.03;;
50291;SDS011;36190;54.980;73.388;2022-12-07T02:43:21;28.77;;;8.15;;
50291;SDS011;36190;54.980;73.388;2022-12-07T02:45:54;20.30;;;7.97;;
50291;SDS011;36190;54.980;73.388;2022-12-07T02:48:24;18.90;;;7.37;;
50291;SDS011;36190;54.980;73.388;2022-12-07T02:50:54;23.67;;;9.53;;
50291;SDS011;36190;54.980;73.388;2022-12-07T02:53:28;24.60;;;7.23;;
50291;SDS011;36190;54.980;73.388;2022-12-07T02:55:56;25.63;;;8.63;;
50291;SDS011;36190;54.980;73.388;2022-12-07T02:58:27;23.23;;;7.33;;
50291;SDS011;36190;54.980;73.388;2022-12-07T03:01:11;25.27;;;8.23;;
50291;SDS011;36190;54.980;73.388;2022-12-07T03:03:52;22.97;;;7.90;;
50291;SDS011;36190;54.980;73.388;2022-12-07T03:06:29;21.27;;;7.53;;
50291;SDS011;36190;54.980;73.388;2022-12-07T03:09:05;26.13;;;8.93;;
50291;SDS011;36190;54.980;73.388;2022-12-07T03:11:42;21.93;;;8.60;;
50291;SDS011;36190;54.980;73.388;2022-12-07T03:14:15;21.88;;;7.90;;
50291;SDS011;36190;54.980;73.388;2022-12-07T03:16:51;25.47;;;9.10;;
50291;SDS011;36190;54.980;73.388;2022-12-07T03:19:22;24.27;;;8.55;;
50291;SDS011;36190;54.980;73.388;2022-12-07T03:21:53;18.23;;;7.10;;
50291;SDS011;36190;54.980;73.388;2022-12-07T03:24:25;20.63;;;7.90;;
50291;SDS011;36190;54.980;73.388;2022-12-07T03:26:55;22.90;;;10.50;;
50291;SDS011;36190;54.980;73.388;2022-12-07T03:29:30;22.70;;;8.40;;
50291;SDS011;36190;54.980;73.388;2022-12-07T03:32:03;21.20;;;9.00;;
50291;SDS011;36190;54.980;73.388;2022-12-07T03:34:36;19.47;;;7.80;;
50291;SDS011;36190;54.980;73.388;2022-12-07T03:37:08;23.47;;;7.57;;
50291;SDS011;36190;54.980;73.388;2022-12-07T03:39:39;19.97;;;9.40;;
50291;SDS011;36190;54.980;73.388;2022-12-07T03:42:12;23.38;;;8.07;;
50291;SDS011;36190;54.980;73.388;2022-12-07T03:44:40;29.00;;;9.23;;
50291;SDS011;36190;54.980;73.388;2022-12-07T03:47:11;18.20;;;7.60;;
50291;SDS011;36190;54.980;73.388;2022-12-07T03:49:43;15.65;;;6.00;;
50291;SDS011;36190;54.980;73.388;2022-12-07T03:52:17;16.23;;;6.65;;
50291;SDS011;36190;54.980;73.388;2022-12-07T03:54:51;18.20;;;6.80;;
50291;SDS011;36190;54.980;73.388;2022-12-07T03:57:24;20.77;;;7.57;;
50291;SDS011;36190;54.980;73.388;2022-12-07T03:59:54;21.57;;;6.93;;
50291;SDS011;36190;54.980;73.388;2022-12-07T04:02:25;23.63;;;8.77;;
50291;SDS011;36190;54.980;73.388;2022-12-07T04:04:54;20.53;;;7.23;;
50291;SDS011;36190;54.980;73.388;2022-12-07T04:07:23;23.60;;;7.20;;
50291;SDS011;36190;54.980;73.388;2022-12-07T04:09:50;21.93;;;7.37;;
50291;SDS011;36190;54.980;73.388;2022-12-07T04:12:20;14.87;;;6.13;;
50291;SDS011;36190;54.980;73.388;2022-12-07T04:14:47;18.57;;;6.00;;
50291;SDS011;36190;54.980;73.388;2022-12-07T04:17:14;23.00;;;6.97;;
50291;SDS011;36190;54.980;73.388;2022-12-07T04:19:44;20.90;;;7.80;;
50291;SDS011;36190;54.980;73.388;2022-12-07T04:22:11;33.77;;;7.20;;
50291;SDS011;36190;54.980;73.388;2022-12-07T04:24:38;25.50;;;9.10;;
50291;SDS011;36190;54.980;73.388;2022-12-07T04:27:06;21.10;;;6.50;;
50291;SDS011;36190;54.980;73.388;2022-12-07T04:29:33;26.07;;;8.80;;
50291;SDS011;36190;54.980;73.388;2022-12-07T04:32:00;22.60;;;7.57;;
50291;SDS011;36190;54.980;73.388;2022-12-07T04:34:28;31.27;;;8.63;;
50291;SDS011;36190;54.980;73.388;2022-12-07T04:36:57;26.13;;;8.53;;
50291;SDS011;36190;54.980;73.388;2022-12-07T04:39:25;16.70;;;6.87;;
50291;SDS011;36190;54.980;73.388;2022-12-07T04:41:54;23.93;;;8.77;;
50291;SDS011;36190;54.980;73.388;2022-12-07T04:44:22;22.27;;;8.53;;
50291;SDS011;36190;54.980;73.388;2022-12-07T04:46:51;20.63;;;8.07;;
50291;SDS011;36190;54.980;73.388;2022-12-07T04:49:19;24.27;;;9.30;;
50291;SDS011;36190;54.980;73.388;2022-12-07T04:51:47;24.20;;;9.37;;
50291;SDS011;36190;54.980;73.388;2022-12-07T04:54:16;26.43;;;9.70;;
50291;SDS011;36190;54.980;73.388;2022-12-07T04:56:44;26.20;;;10.50;;
50291;SDS011;36190;54.980;73.388;2022-12-07T04:59:11;29.07;;;10.50;;
50291;SDS011;36190;54.980;73.388;2022-12-07T05:01:39;26.53;;;9.17;;
50291;SDS011;36190;54.980;73.388;2022-12-07T05:04:07;21.53;;;7.87;;
50291;SDS011;36190;54.980;73.388;2022-12-07T05:06:34;24.67;;;9.77;;
50291;SDS011;36190;54.980;73.388;2022-12-07T05:09:02;26.20;;;9.80;;
50291;SDS011;36190;54.980;73.388;2022-12-07T05:11:31;25.97;;;8.97;;
50291;SDS011;36190;54.980;73.388;2022-12-07T05:14:05;25.27;;;9.10;;
50291;SDS011;36190;54.980;73.388;2022-12-07T05:16:35;27.73;;;10.07;;
50291;SDS011;36190;54.980;73.388;2022-12-07T05:19:03;21.93;;;8.93;;
50291;SDS011;36190;54.980;73.388;2022-12-07T05:21:31;27.47;;;9.17;;
50291;SDS011;36190;54.980;73.388;2022-12-07T05:23:58;20.20;;;8.57;;
50291;SDS011;36190;54.980;73.388;2022-12-07T05:26:27;26.83;;;10.83;;
50291;SDS011;36190;54.980;73.388;2022-12-07T05:28:56;24.00;;;9.43;;
50291;SDS011;36190;54.980;73.388;2022-12-07T05:31:24;25.67;;;10.33;;
50291;SDS011;36190;54.980;73.388;2022-12-07T05:33:52;22.40;;;7.73;;
50291;SDS011;36190;54.980;73.388;2022-12-07T05:36:20;23.03;;;10.50;;
50291;SDS011;36190;54.980;73.388;2022-12-07T05:38:48;27.57;;;9.20;;
50291;SDS011;36190;54.980;73.388;2022-12-07T05:41:17;26.30;;;10.13;;
50291;SDS011;36190;54.980;73.388;2022-12-07T05:44:03;23.23;;;10.03;;
50291;SDS011;36190;54.980;73.388;2022-12-07T05:46:31;26.43;;;10.43;;
50291;SDS011;36190;54.980;73.388;2022-12-07T05:48:58;27.73;;;9.73;;
50291;SDS011;36190;54.980;73.388;2022-12-07T05:51:26;26.50;;;10.70;;
50291;SDS011;36190;54.980;73.388;2022-12-07T05:53:53;28.53;;;9.47;;
50291;SDS011;36190;54.980;73.388;2022-12-07T05:56:21;29.30;;;9.10;;
50291;SDS011;36190;54.980;73.388;2022-12-07T05:58:49;30.10;;;10.27;;
50291;SDS011;36190;54.980;73.388;2022-12-07T06:01:35;31.37;;;10.07;;
50291;SDS011;36190;54.980;73.388;2022-12-07T06:04:03;22.40;;;9.37;;
50291;SDS011;36190;54.980;73.388;2022-12-07T06:06:30;22.83;;;7.73;;
50291;SDS011;36190;54.980;73.388;2022-12-07T06:08:58;23.20;;;8.63;;
50291;SDS011;36190;54.980;73.388;2022-12-07T06:11:25;17.80;;;7.33;;
50291;SDS011;36190;54.980;73.388;2022-12-07T06:14:10;23.03;;;9.77;;
50291;SDS011;36190;54.980;73.388;2022-12-07T06:16:39;27.10;;;10.43;;
50291;SDS011;36190;54.980;73.388;2022-12-07T06:19:06;28.23;;;10.90;;
50291;SDS011;36190;54.980;73.388;2022-12-07T06:21:33;28.33;;;10.20;;
50291;SDS011;36190;54.980;73.388;2022-12-07T06:24:03;30.13;;;10.57;;
50291;SDS011;36190;54.980;73.388;2022-12-07T06:26:31;25.23;;;8.33;;
50291;SDS011;36190;54.980;73.388;2022-12-07T06:28:59;23.30;;;7.53;;
50291;SDS011;36190;54.980;73.388;2022-12-07T06:31:26;25.03;;;9.37;;
50291;SDS011;36190;54.980;73.388;2022-12-07T06:33:58;19.20;;;7.67;;
50291;SDS011;36190;54.980;73.388;2022-12-07T06:36:26;28.90;;;9.87;;
50291;SDS011;36190;54.980;73.388;2022-12-07T06:38:54;22.13;;;8.10;;
50291;SDS011;36190;54.980;73.388;2022-12-07T06:41:21;24.90;;;10.20;;
50291;SDS011;36190;54.980;73.388;2022-12-07T06:43:49;31.03;;;9.97;;
50291;SDS011;36190;54.980;73.388;2022-12-07T06:46:16;26.40;;;9.37;;
50291;SDS011;36190;54.980;73.388;2022-12-07T06:48:44;29.03;;;11.40;;
50291;SDS011;36190;54.980;73.388;2022-12-07T06:51:13;30.20;;;11.07;;
50291;SDS011;36190;54.980;73.388;2022-12-07T06:53:40;30.30;;;10.10;;
50291;SDS011;36190;54.980;73.388;2022-12-07T06:56:07;25.40;;;7.67;;
50291;SDS011;36190;54.980;73.388;2022-12-07T06:58:35;33.00;;;10.47;;
50291;SDS011;36190;54.980;73.388;2022-12-07T07:01:02;26.17;;;8.77;;
50291;SDS011;36190;54.980;73.388;2022-12-07T07:03:34;28.07;;;8.67;;
50291;SDS011;36190;54.980;73.388;2022-12-07T07:06:02;33.87;;;10.83;;
50291;SDS011;36190;54.980;73.388;2022-12-07T07:08:31;32.27;;;10.87;;
50291;SDS011;36190;54.980;73.388;2022-12-07T07:10:58;42.30;;;12.37;;
50291;SDS011;36190;54.980;73.388;2022-12-07T07:13:26;20.40;;;7.17;;
50291;SDS011;36190;54.980;73.388;2022-12-07T07:15:53;30.10;;;10.07;;
50291;SDS011;36190;54.980;73.388;2022-12-07T07:18:21;22.47;;;8.90;;
50291;SDS011;36190;54.980;73.388;2022-12-07T07:20:49;24.27;;;6.27;;
50291;SDS011;36190;54.980;73.388;2022-12-07T07:23:17;24.93;;;8.17;;
50291;SDS011;36190;54.980;73.388;2022-12-07T07:25:46;18.43;;;6.23;;
50291;SDS011;36190;54.980;73.388;2022-12-07T07:28:13;26.53;;;7.50;;
50291;SDS011;36190;54.980;73.388;2022-12-07T07:30:41;21.50;;;6.80;;
50291;SDS011;36190;54.980;73.388;2022-12-07T07:33:09;16.33;;;6.67;;
50291;SDS011;36190;54.980;73.388;2022-12-07T07:35:36;19.23;;;5.90;;
50291;SDS011;36190;54.980;73.388;2022-12-07T07:38:04;19.60;;;6.53;;
50291;SDS011;36190;54.980;73.388;2022-12-07T07:40:32;16.73;;;6.97;;
50291;SDS011;36190;54.980;73.388;2022-12-07T07:43:01;17.30;;;6.27;;
50291;SDS011;36190;54.980;73.388;2022-12-07T07:45:28;18.40;;;5.47;;
50291;SDS011;36190;54.980;73.388;2022-12-07T07:47:56;18.90;;;6.43;;
50291;SDS011;36190;54.980;73.388;2022-12-07T07:50:23;17.23;;;6.40;;
50291;SDS011;36190;54.980;73.388;2022-12-07T07:52:51;20.93;;;5.47;;
50291;SDS011;36190;54.980;73.388;2022-12-07T07:55:18;24.73;;;6.53;;
50291;SDS011;36190;54.980;73.388;2022-12-07T07:57:46;23.40;;;5.87;;
50291;SDS011;36190;54.980;73.388;2022-12-07T08:00:15;18.87;;;5.83;;
50291;SDS011;36190;54.980;73.388;2022-12-07T08:02:43;22.10;;;4.97;;
50291;SDS011;36190;54.980;73.388;2022-12-07T08:05:11;21.93;;;6.60;;
50291;SDS011;36190;54.980;73.388;2022-12-07T08:07:39;20.33;;;7.63;;
50291;SDS011;36190;54.980;73.388;2022-12-07T08:10:07;20.57;;;6.40;;
50291;SDS011;36190;54.980;73.388;2022-12-07T08:12:37;22.77;;;7.27;;
50291;SDS011;36190;54.980;73.388;2022-12-07T08:15:27;19.10;;;6.40;;
50291;SDS011;36190;54.980;73.388;2022-12-07T08:17:56;23.33;;;6.57;;
50291;SDS011;36190;54.980;73.388;2022-12-07T08:20:24;29.80;;;7.07;;
50291;SDS011;36190;54.980;73.388;2022-12-07T08:22:52;18.87;;;6.00;;
50291;SDS011;36190;54.980;73.388;2022-12-07T08:25:19;16.97;;;6.77;;
50291;SDS011;36190;54.980;73.388;2022-12-07T08:27:47;14.07;;;5.37;;
50291;SDS011;36190;54.980;73.388;2022-12-07T08:30:14;15.30;;;5.63;;
50291;SDS011;36190;54.980;73.388;2022-12-07T08:32:45;19.33;;;6.80;;
50291;SDS011;36190;54.980;73.388;2022-12-07T08:35:13;20.93;;;7.27;;
50291;SDS011;36190;54.980;73.388;2022-12-07T08:37:41;22.10;;;7.63;;
50291;SDS011;36190;54.980;73.388;2022-12-07T08:40:09;17.67;;;5.90;;
50291;SDS011;36190;54.980;73.388;2022-12-07T08:42:40;20.10;;;6.27;;
50291;SDS011;36190;54.980;73.388;2022-12-07T08:45:10;19.23;;;6.03;;
50291;SDS011;36190;54.980;73.388;2022-12-07T08:47:40;17.80;;;6.53;;
50291;SDS011;36190;54.980;73.388;2022-12-07T08:50:13;17.23;;;5.50;;
50291;SDS011;36190;54.980;73.388;2022-12-07T08:52:41;15.40;;;5.83;;
50291;SDS011;36190;54.980;73.388;2022-12-07T08:55:09;19.53;;;5.63;;
50291;SDS011;36190;54.980;73.388;2022-12-07T08:57:38;19.63;;;4.93;;
50291;SDS011;36190;54.980;73.388;2022-12-07T09:00:07;14.00;;;5.03;;
50291;SDS011;36190;54.980;73.388;2022-12-07T09:02:35;20.93;;;6.07;;
50291;SDS011;36190;54.980;73.388;2022-12-07T09:05:03;22.00;;;5.17;;
50291;SDS011;36190;54.980;73.388;2022-12-07T09:07:32;19.00;;;5.20;;
50291;SDS011;36190;54.980;73.388;2022-12-07T09:10:01;17.40;;;4.80;;
50291;SDS011;36190;54.980;73.388;2022-12-07T09:12:29;16.37;;;5.03;;
50291;SDS011;36190;54.980;73.388;2022-12-07T09:14:56;16.47;;;5.27;;
50291;SDS011;36190;54.980;73.388;2022-12-07T09:17:26;18.57;;;5.23;;
50291;SDS011;36190;54.980;73.388;2022-12-07T09:19:53;18.80;;;5.00;;
50291;SDS011;36190;54.980;73.388;2022-12-07T09:22:21;12.27;;;3.90;;
50291;SDS011;36190;54.980;73.388;2022-12-07T09:24:49;14.93;;;4.27;;
50291;SDS011;36190;54.980;73.388;2022-12-07T09:27:17;10.57;;;4.10;;
50291;SDS011;36190;54.980;73.388;2022-12-07T09:29:44;17.63;;;5.03;;
50291;SDS011;36190;54.980;73.388;2022-12-07T09:32:12;14.40;;;5.27;;
50291;SDS011;36190;54.980;73.388;2022-12-07T09:34:39;19.13;;;5.00;;
50291;SDS011;36190;54.980;73.388;2022-12-07T09:37:06;23.50;;;5.77;;
50291;SDS011;36190;54.980;73.388;2022-12-07T09:39:34;18.03;;;6.67;;
50291;SDS011;36190;54.980;73.388;2022-12-07T09:42:06;17.20;;;6.77;;
50291;SDS011;36190;54.980;73.388;2022-12-07T09:44:36;20.40;;;6.47;;
50291;SDS011;36190;54.980;73.388;2022-12-07T09:47:07;19.97;;;6.20;;
50291;SDS011;36190;54.980;73.388;2022-12-07T09:49:37;22.17;;;6.20;;
50291;SDS011;36190;54.980;73.388;2022-12-07T09:52:16;21.53;;;7.10;;
50291;SDS011;36190;54.980;73.388;2022-12-07T09:54:47;25.93;;;6.63;;
50291;SDS011;36190;54.980;73.388;2022-12-07T09:57:18;21.43;;;5.87;;
50291;SDS011;36190;54.980;73.388;2022-12-07T09:59:52;15.80;;;5.07;;
50291;SDS011;36190;54.980;73.388;2022-12-07T10:02:30;19.57;;;7.00;;
50291;SDS011;36190;54.980;73.388;2022-12-07T10:05:03;26.73;;;6.67;;
50291;SDS011;36190;54.980;73.388;2022-12-07T10:07:31;23.40;;;6.77;;
50291;SDS011;36190;54.980;73.388;2022-12-07T10:09:59;28.20;;;7.73;;
50291;SDS011;36190;54.980;73.388;2022-12-07T10:12:31;27.37;;;7.60;;
50291;SDS011;36190;54.980;73.388;2022-12-07T10:15:20;22.60;;;6.60;;
50291;SDS011;36190;54.980;73.388;2022-12-07T10:17:48;21.87;;;7.33;;
50291;SDS011;36190;54.980;73.388;2022-12-07T10:20:19;26.37;;;7.33;;
50291;SDS011;36190;54.980;73.388;2022-12-07T10:23:00;22.20;;;7.03;;
50291;SDS011;36190;54.980;73.388;2022-12-07T10:25:30;24.30;;;7.33;;
50291;SDS011;36190;54.980;73.388;2022-12-07T10:28:10;23.37;;;6.00;;
50291;SDS011;36190;54.980;73.388;2022-12-07T10:30:46;26.77;;;7.30;;
50291;SDS011;36190;54.980;73.388;2022-12-07T10:33:28;23.93;;;7.70;;
50291;SDS011;36190;54.980;73.388;2022-12-07T10:35:57;28.13;;;7.53;;
50291;SDS011;36190;54.980;73.388;2022-12-07T10:38:26;28.37;;;7.57;;
50291;SDS011;36190;54.980;73.388;2022-12-07T10:41:03;25.87;;;8.43;;
50291;SDS011;36190;54.980;73.388;2022-12-07T10:43:33;31.47;;;8.27;;
50291;SDS011;36190;54.980;73.388;2022-12-07T10:49:10;29.07;;;8.23;;
50291;SDS011;36190;54.980;73.388;2022-12-07T10:51:58;30.27;;;8.50;;
50291;SDS011;36190;54.980;73.388;2022-12-07T10:54:34;24.50;;;7.00;;
50291;SDS011;36190;54.980;73.388;2022-12-07T10:57:18;24.53;;;7.40;;
50291;SDS011;36190;54.980;73.388;2022-12-07T11:00:04;32.70;;;7.60;;
50291;SDS011;36190;54.980;73.388;2022-12-07T11:02:43;31.90;;;8.00;;
50291;SDS011;36190;54.980;73.388;2022-12-07T11:05:23;24.17;;;7.78;;
50291;SDS011;36190;54.980;73.388;2022-12-07T11:08:00;22.63;;;6.87;;
50291;SDS011;36190;54.980;73.388;2022-12-07T11:10:35;17.95;;;6.68;;
50291;SDS011;36190;54.980;73.388;2022-12-07T11:13:22;16.40;;;6.20;;
50291;SDS011;36190;54.980;73.388;2022-12-07T11:18:52;34.90;;;7.00;;
50291;SDS011;36190;54.980;73.388;2022-12-07T11:21:34;25.90;;;5.73;;
50291;SDS011;36190;54.980;73.388;2022-12-07T11:24:10;24.87;;;6.27;;
50291;SDS011;36190;54.980;73.388;2022-12-07T11:26:46;30.73;;;7.07;;
50291;SDS011;36190;54.980;73.388;2022-12-07T11:29:31;27.43;;;7.10;;
50291;SDS011;36190;54.980;73.388;2022-12-07T11:32:14;24.03;;;6.60;;
50291;SDS011;36190;54.980;73.388;2022-12-07T11:34:51;22.83;;;6.23;;
50291;SDS011;36190;54.980;73.388;2022-12-07T11:37:31;18.57;;;4.73;;
50291;SDS011;36190;54.980;73.388;2022-12-07T11:40:02;22.80;;;5.50;;
50291;SDS011;36190;54.980;73.388;2022-12-07T11:42:33;16.03;;;6.10;;
50291;SDS011;36190;54.980;73.388;2022-12-07T11:45:10;24.13;;;7.30;;
50291;SDS011;36190;54.980;73.388;2022-12-07T11:47:45;26.87;;;6.23;;
50291;SDS011;36190;54.980;73.388;2022-12-07T11:50:21;24.90;;;7.43;;
50291;SDS011;36190;54.980;73.388;2022-12-07T11:52:55;29.40;;;7.57;;
50291;SDS011;36190;54.980;73.388;2022-12-07T11:55:26;27.40;;;7.67;;
50291;SDS011;36190;54.980;73.388;2022-12-07T11:58:01;29.58;;;8.88;;
50291;SDS011;36190;54.980;73.388;2022-12-07T12:00:31;39.27;;;9.27;;
50291;SDS011;36190;54.980;73.388;2022-12-07T12:03:03;37.37;;;9.07;;
50291;SDS011;36190;54.980;73.388;2022-12-07T12:05:37;37.67;;;8.67;;
50291;SDS011;36190;54.980;73.388;2022-12-07T12:08:10;26.40;;;8.10;;
50291;SDS011;36190;54.980;73.388;2022-12-07T12:10:46;19.43;;;9.13;;
50291;SDS011;36190;54.980;73.388;2022-12-07T12:13:29;28.20;;;7.33;;
50291;SDS011;36190;54.980;73.388;2022-12-07T12:16:19;24.23;;;8.47;;
50291;SDS011;36190;54.980;73.388;2022-12-07T12:19:10;28.17;;;8.40;;
50291;SDS011;36190;54.980;73.388;2022-12-07T12:21:47;26.33;;;8.23;;
50291;SDS011;36190;54.980;73.388;2022-12-07T12:24:21;30.67;;;8.10;;
50291;SDS011;36190;54.980;73.388;2022-12-07T12:26:52;25.03;;;7.43;;
50291;SDS011;36190;54.980;73.388;2022-12-07T12:29:26;20.73;;;6.80;;
50291;SDS011;36190;54.980;73.388;2022-12-07T12:32:04;25.92;;;8.18;;
50291;SDS011;36190;54.980;73.388;2022-12-07T12:34:41;27.50;;;8.80;;
50291;SDS011;36190;54.980;73.388;2022-12-07T12:37:43;26.57;;;9.83;;
50291;SDS011;36190;54.980;73.388;2022-12-07T12:55:22;31.10;;;10.53;;
50291;SDS011;36190;54.980;73.388;2022-12-07T12:58:30;27.53;;;9.93;;
50291;SDS011;36190;54.980;73.388;2022-12-07T13:04:14;30.00;;;10.00;;
50291;SDS011;36190;54.980;73.388;2022-12-07T13:06:58;38.00;;;10.03;;
50291;SDS011;36190;54.980;73.388;2022-12-07T13:09:28;25.63;;;6.77;;
50291;SDS011;36190;54.980;73.388;2022-12-07T13:11:59;29.23;;;8.20;;
50291;SDS011;36190;54.980;73.388;2022-12-07T13:20:46;29.33;;;7.87;;
50291;SDS011;36190;54.980;73.388;2022-12-07T13:23:17;25.63;;;7.37;;
50291;SDS011;36190;54.980;73.388;2022-12-07T13:25:53;29.13;;;8.73;;
50291;SDS011;36190;54.980;73.388;2022-12-07T13:28:27;29.43;;;9.83;;
50291;SDS011;36190;54.980;73.388;2022-12-07T13:31:10;31.83;;;10.63;;
50291;SDS011;36190;54.980;73.388;2022-12-07T13:33:46;36.20;;;11.60;;
50291;SDS011;36190;54.980;73.388;2022-12-07T13:36:17;31.03;;;11.60;;
50291;SDS011;36190;54.980;73.388;2022-12-07T13:38:51;37.70;;;12.20;;
50291;SDS011;36190;54.980;73.388;2022-12-07T13:41:24;33.87;;;12.00;;
50291;SDS011;36190;54.980;73.388;2022-12-07T13:43:54;39.77;;;12.27;;
50291;SDS011;36190;54.980;73.388;2022-12-07T13:46:31;37.27;;;13.90;;
50291;SDS011;36190;54.980;73.388;2022-12-07T13:49:15;30.07;;;11.23;;
50291;SDS011;36190;54.980;73.388;2022-12-07T13:51:44;34.23;;;12.33;;
50291;SDS011;36190;54.980;73.388;2022-12-07T13:54:12;30.43;;;11.93;;
50291;SDS011;36190;54.980;73.388;2022-12-07T13:56:42;24.10;;;10.20;;
50291;SDS011;36190;54.980;73.388;2022-12-07T13:59:12;28.43;;;10.47;;
50291;SDS011;36190;54.980;73.388;2022-12-07T14:01:43;29.50;;;10.27;;
50291;SDS011;36190;54.980;73.388;2022-12-07T14:04:16;28.37;;;10.77;;
50291;SDS011;36190;54.980;73.388;2022-12-07T14:06:48;30.77;;;11.23;;
50291;SDS011;36190;54.980;73.388;2022-12-07T14:09:17;31.73;;;10.30;;
50291;SDS011;36190;54.980;73.388;2022-12-07T14:11:47;24.57;;;9.37;;
50291;SDS011;36190;54.980;73.388;2022-12-07T14:14:17;32.00;;;10.27;;
50291;SDS011;36190;54.980;73.388;2022-12-07T14:16:55;30.77;;;10.07;;
50291;SDS011;36190;54.980;73.388;2022-12-07T14:22:19;30.90;;;10.53;;
50291;SDS011;36190;54.980;73.388;2022-12-07T14:24:49;34.37;;;12.00;;
50291;SDS011;36190;54.980;73.388;2022-12-07T14:27:18;31.43;;;11.83;;
50291;SDS011;36190;54.980;73.388;2022-12-07T14:29:47;36.67;;;13.23;;
50291;SDS011;36190;54.980;73.388;2022-12-07T14:32:18;34.40;;;12.57;;
50291;SDS011;36190;54.980;73.388;2022-12-07T14:34:53;40.40;;;12.50;;
50291;SDS011;36190;54.980;73.388;2022-12-07T14:37:25;42.40;;;13.57;;
50291;SDS011;36190;54.980;73.388;2022-12-07T14:39:53;37.07;;;13.50;;
50291;SDS011;36190;54.980;73.388;2022-12-07T14:42:22;40.50;;;14.00;;
50291;SDS011;36190;54.980;73.388;2022-12-07T14:44:52;43.87;;;15.90;;
50291;SDS011;36190;54.980;73.388;2022-12-07T14:47:20;41.57;;;15.30;;
50291;SDS011;36190;54.980;73.388;2022-12-07T14:49:47;50.07;;;17.17;;
50291;SDS011;36190;54.980;73.388;2022-12-07T14:52:15;44.27;;;16.57;;
50291;SDS011;36190;54.980;73.388;2022-12-07T14:54:46;37.03;;;15.33;;
50291;SDS011;36190;54.980;73.388;2022-12-07T14:57:14;51.73;;;17.57;;
50291;SDS011;36190;54.980;73.388;2022-12-07T14:59:43;47.30;;;14.47;;
50291;SDS011;36190;54.980;73.388;2022-12-07T15:02:11;44.97;;;14.93;;
50291;SDS011;36190;54.980;73.388;2022-12-07T15:04:39;36.97;;;14.47;;
50291;SDS011;36190;54.980;73.388;2022-12-07T15:07:10;32.73;;;13.43;;
50291;SDS011;36190;54.980;73.388;2022-12-07T15:09:45;38.67;;;13.80;;
50291;SDS011;36190;54.980;73.388;2022-12-07T15:12:12;40.83;;;13.60;;
50291;SDS011;36190;54.980;73.388;2022-12-07T15:14:40;35.13;;;12.73;;